createdAt,value
2022-11-16T00:00:32.624Z,98800.00
2022-11-16T00:03:14.279Z,98798.00
2022-11-16T00:06:06.260Z,98849.00
2022-11-16T00:09:14.864Z,98815.00
2022-11-16T00:12:06.018Z,98859.00
2022-11-16T00:14:41.929Z,98805.00
2022-11-16T00:17:18.943Z,98795.00
2022-11-16T00:20:33.914Z,98779.00
2022-11-16T00:23:13.602Z,98829.00
2022-11-16T00:25:56.934Z,98821.00
2022-11-16T00:28:36.895Z,98844.00
2022-11-16T00:31:32.666Z,98819.00
2022-11-16T00:34:24.535Z,98782.00
2022-11-16T00:37:41.560Z,98824.00
2022-11-16T00:40:29.790Z,98830.00
2022-11-16T00:43:13.426Z,98771.00
2022-11-16T00:45:52.874Z,98822.00
2022-11-16T00:48:57.604Z,98811.00
2022-11-16T00:51:41.847Z,98815.00
2022-11-16T00:54:30.691Z,98818.00
2022-11-16T00:57:11.647Z,98793.00
2022-11-16T01:00:27.539Z,98806.00
2022-11-16T01:03:17.439Z,98742.00
2022-11-16T01:06:11.260Z,98792.00
2022-11-16T01:08:57.946Z,98826.00
2022-11-16T01:12:10.584Z,98750.00
2022-11-16T01:15:37.508Z,98825.00
2022-11-16T01:18:21.576Z,98769.00
2022-11-16T01:21:32.477Z,98803.00
2022-11-16T01:24:14.940Z,98718.00
2022-11-16T01:27:17.621Z,98722.00
2022-11-16T01:33:44.579Z,98778.00
2022-11-16T01:43:37.437Z,98786.00
2022-11-16T01:46:35.769Z,98785.00
2022-11-16T01:50:34.026Z,98724.00
2022-11-16T01:54:48.984Z,98785.00
2022-11-16T01:58:30.088Z,98799.00
2022-11-16T02:01:47.609Z,98774.00
2022-11-16T02:04:55.600Z,98721.00
2022-11-16T02:08:47.432Z,98724.00
2022-11-16T02:12:38.550Z,98761.00
2022-11-16T02:15:42.381Z,98769.00
2022-11-16T02:19:24.468Z,98682.00
2022-11-16T02:22:28.060Z,98719.00
2022-11-16T02:25:26.355Z,98796.00
2022-11-16T02:28:51.856Z,98750.00
2022-11-16T02:31:52.195Z,98727.00
2022-11-16T02:34:58.768Z,98768.00
2022-11-16T02:38:00.739Z,98769.00
2022-11-16T02:41:12.031Z,98675.00
2022-11-16T02:43:56.252Z,98751.00
2022-11-16T02:47:01.705Z,98746.00
2022-11-16T02:51:10.943Z,98744.00
2022-11-16T02:54:27.672Z,98759.00
2022-11-16T02:57:59.941Z,98637.00
2022-11-16T03:01:08.082Z,98678.00
2022-11-16T03:04:12.482Z,98732.00
2022-11-16T03:06:52.305Z,98730.00
2022-11-16T03:09:48.341Z,98729.00
2022-11-16T03:12:39.987Z,98736.00
2022-11-16T03:15:23.510Z,98733.00
2022-11-16T03:18:11.865Z,98691.00
2022-11-16T03:21:36.142Z,98717.00
2022-11-16T03:24:24.380Z,98698.00
2022-11-16T03:27:31.758Z,98731.00
2022-11-16T03:30:42.101Z,98672.00
2022-11-16T03:33:32.420Z,98719.00
2022-11-16T03:36:42.174Z,98635.00
2022-11-16T03:39:42.606Z,98734.00
2022-11-16T03:42:43.968Z,98651.00
2022-11-16T03:45:28.092Z,98714.00
2022-11-16T03:48:23.645Z,98716.00
2022-11-16T03:51:33.272Z,98730.00
2022-11-16T03:58:04.126Z,98656.00
2022-11-16T04:01:05.524Z,98738.00
2022-11-16T04:03:54.010Z,98683.00
2022-11-16T04:06:55.217Z,98690.00
2022-11-16T04:09:56.304Z,98682.00
2022-11-16T04:12:57.972Z,98702.00
2022-11-16T04:19:22.053Z,98709.00
2022-11-16T04:22:44.523Z,98705.00
2022-11-16T04:25:27.777Z,98677.00
2022-11-16T04:28:18.384Z,98758.00
2022-11-16T04:31:24.035Z,98683.00
2022-11-16T04:34:21.966Z,98676.00
2022-11-16T04:37:36.660Z,98748.00
2022-11-16T04:40:24.473Z,98757.00
2022-11-16T04:43:15.399Z,98705.00
2022-11-16T04:46:30.771Z,98690.00
2022-11-16T04:49:23.247Z,98716.00
2022-11-16T04:52:17.929Z,98763.00
2022-11-16T04:55:07.891Z,98747.00
2022-11-16T04:58:51.599Z,98768.00
2022-11-16T05:01:41.262Z,98767.00
2022-11-16T05:04:21.463Z,98785.00
2022-11-16T05:07:13.055Z,98766.00
2022-11-16T05:09:55.513Z,98755.00
2022-11-16T05:12:35.559Z,98750.00
2022-11-16T05:15:42.828Z,98721.00
2022-11-16T05:18:18.898Z,98712.00
2022-11-16T05:21:00.803Z,98763.00
2022-11-16T05:23:51.724Z,98769.00
2022-11-16T05:26:25.177Z,98770.00
2022-11-16T05:28:58.536Z,98772.00
2022-11-16T05:31:39.098Z,98788.00
2022-11-16T05:34:15.343Z,98785.00
2022-11-16T05:36:48.905Z,98772.00
2022-11-16T05:39:26.494Z,98781.00
2022-11-16T05:42:03.227Z,98794.00
2022-11-16T05:44:43.050Z,98783.00
2022-11-16T05:47:18.144Z,98754.00
2022-11-16T05:49:52.075Z,98753.00
2022-11-16T05:52:28.446Z,98799.00
2022-11-16T05:55:02.109Z,98801.00
2022-11-16T05:57:35.833Z,98778.00
2022-11-16T06:00:14.618Z,98808.00
2022-11-16T06:02:49.952Z,98813.00
2022-11-16T06:05:24.220Z,98820.00
2022-11-16T06:07:58.222Z,98826.00
2022-11-16T06:10:32.014Z,98802.00
2022-11-16T06:13:05.803Z,98799.00
2022-11-16T06:15:39.522Z,98815.00
2022-11-16T06:18:14.542Z,98800.00
2022-11-16T06:20:50.390Z,98811.00
2022-11-16T06:23:24.102Z,98798.00
2022-11-16T06:25:59.683Z,98781.00
2022-11-16T06:28:34.645Z,98833.00
2022-11-16T06:31:08.715Z,98828.00
2022-11-16T06:33:46.006Z,98801.00
2022-11-16T06:36:19.583Z,98818.00
2022-11-16T06:38:53.712Z,98825.00
2022-11-16T06:41:27.711Z,98822.00
2022-11-16T06:44:02.143Z,98832.00
2022-11-16T06:46:36.034Z,98831.00
2022-11-16T06:49:11.908Z,98818.00
2022-11-16T06:51:45.779Z,98844.00
2022-11-16T06:54:19.755Z,98853.00
2022-11-16T06:56:53.381Z,98825.00
2022-11-16T06:59:27.365Z,98856.00
2022-11-16T07:02:03.830Z,98875.00
2022-11-16T07:04:39.241Z,98870.00
2022-11-16T07:07:12.716Z,98858.00
2022-11-16T07:09:46.319Z,98866.00
2022-11-16T07:12:20.536Z,98874.00
2022-11-16T07:14:54.354Z,98865.00
2022-11-16T07:17:28.019Z,98877.00
2022-11-16T07:20:03.379Z,98867.00
2022-11-16T07:22:37.487Z,98875.00
2022-11-16T07:25:11.639Z,98882.00
2022-11-16T07:27:45.335Z,98891.00
2022-11-16T07:30:20.225Z,98885.00
2022-11-16T07:32:58.850Z,98901.00
2022-11-16T07:35:33.983Z,98906.00
2022-11-16T07:38:17.871Z,98886.00
2022-11-16T07:40:52.127Z,98878.00
2022-11-16T07:43:27.295Z,98886.00
2022-11-16T07:46:44.479Z,98911.00
2022-11-16T07:49:09.884Z,98894.00
2022-11-16T07:51:47.405Z,98926.00
2022-11-16T07:54:21.310Z,98929.00
2022-11-16T07:56:57.125Z,98934.00
2022-11-16T07:59:37.243Z,98918.00
2022-11-16T08:02:12.091Z,98936.00
2022-11-16T08:04:45.949Z,98936.00
2022-11-16T08:07:21.660Z,98960.00
2022-11-16T08:09:58.737Z,98941.00
2022-11-16T08:12:32.981Z,98960.00
2022-11-16T08:15:07.615Z,98943.00
2022-11-16T08:17:41.824Z,98959.00
2022-11-16T08:20:15.990Z,98956.00
2022-11-16T08:22:51.578Z,98946.00
2022-11-16T08:25:26.926Z,98942.00
2022-11-16T08:28:00.631Z,98960.00
2022-11-16T08:30:34.398Z,98947.00
2022-11-16T08:33:10.238Z,98946.00
2022-11-16T08:35:43.886Z,98958.00
2022-11-16T08:38:21.142Z,98946.00
2022-11-16T08:40:57.861Z,98946.00
2022-11-16T08:43:37.291Z,98962.00
2022-11-16T08:46:12.876Z,98962.00
2022-11-16T08:48:47.499Z,98975.00
2022-11-16T08:51:21.348Z,98979.00
2022-11-16T08:54:00.699Z,98969.00
2022-11-16T08:56:35.463Z,98994.00
2022-11-16T08:59:08.925Z,98995.00
2022-11-16T09:01:42.825Z,98989.00
2022-11-16T09:04:35.690Z,99004.00
2022-11-16T09:07:15.251Z,99014.00
2022-11-16T09:09:50.558Z,99010.00
2022-11-16T09:12:26.775Z,98990.00
2022-11-16T09:15:02.793Z,98998.00
2022-11-16T09:17:36.730Z,99019.00
2022-11-16T09:20:10.941Z,99023.00
2022-11-16T09:22:45.712Z,99024.00
2022-11-16T09:25:23.889Z,98997.00
2022-11-16T09:27:57.745Z,98956.00
2022-11-16T09:30:31.647Z,99034.00
2022-11-16T09:33:05.552Z,99036.00
2022-11-16T09:35:39.911Z,99039.00
2022-11-16T09:38:19.084Z,99028.00
2022-11-16T09:41:01.974Z,99026.00
2022-11-16T09:43:51.210Z,99031.00
2022-11-16T09:46:34.821Z,99040.00
2022-11-16T09:49:18.115Z,99047.00
2022-11-16T09:51:58.868Z,99018.00
2022-11-16T09:54:40.429Z,99038.00
2022-11-16T09:57:22.314Z,99011.00
2022-11-16T10:00:03.496Z,99039.00
2022-11-16T10:02:44.607Z,99044.00
2022-11-16T10:05:23.682Z,99036.00
2022-11-16T10:08:08.439Z,99049.00
2022-11-16T10:10:56.430Z,98985.00
2022-11-16T10:13:50.067Z,99070.00
2022-11-16T10:16:37.521Z,99033.00
2022-11-16T10:19:27.919Z,99048.00
2022-11-16T10:22:12.480Z,99036.00
2022-11-16T10:24:59.395Z,99036.00
2022-11-16T10:28:02.697Z,99023.00
2022-11-16T10:30:48.961Z,99025.00
2022-11-16T10:33:28.417Z,99018.00
2022-11-16T10:36:05.866Z,98966.00
2022-11-16T10:38:41.090Z,99022.00
2022-11-16T10:41:24.802Z,99008.00
2022-11-16T10:44:02.211Z,99012.00
2022-11-16T10:46:46.827Z,99003.00
2022-11-16T10:49:32.525Z,98959.00
2022-11-16T10:52:06.793Z,98989.00
2022-11-16T10:54:44.261Z,99002.00
2022-11-16T10:57:24.580Z,98996.00
2022-11-16T10:59:59.822Z,98952.00
2022-11-16T11:02:38.094Z,98957.00
2022-11-16T11:05:21.423Z,98970.00
2022-11-16T11:08:04.579Z,98956.00
2022-11-16T11:10:40.937Z,98961.00
2022-11-16T11:13:27.781Z,98938.00
2022-11-16T11:16:23.958Z,98968.00
2022-11-16T11:19:21.152Z,98986.00
2022-11-16T11:22:00.355Z,98997.00
2022-11-16T11:24:44.395Z,98990.00
2022-11-16T11:27:29.782Z,98992.00
2022-11-16T11:30:04.426Z,98964.00
2022-11-16T11:32:42.537Z,98974.00
2022-11-16T11:35:30.271Z,98950.00
2022-11-16T11:38:08.218Z,98972.00
2022-11-16T11:40:59.832Z,98971.00
2022-11-16T11:43:35.439Z,98938.00
2022-11-16T11:46:21.520Z,98950.00
2022-11-16T11:49:06.273Z,98901.00
2022-11-16T11:51:46.959Z,98926.00
2022-11-16T11:54:27.978Z,98951.00
2022-11-16T11:57:04.037Z,98956.00
2022-11-16T11:59:48.369Z,98884.00
2022-11-16T12:02:46.711Z,98932.00
2022-11-16T12:05:59.079Z,98919.00
2022-11-16T12:09:02.858Z,98920.00
2022-11-16T12:11:58.980Z,98937.00
2022-11-16T12:14:58.027Z,98938.00
2022-11-16T12:17:47.540Z,98901.00
2022-11-16T12:20:39.080Z,98917.00
2022-11-16T12:23:45.285Z,98928.00
2022-11-16T12:26:31.168Z,98921.00
2022-11-16T12:29:25.973Z,98918.00
2022-11-16T12:32:31.826Z,98936.00
2022-11-16T12:35:40.908Z,98934.00
2022-11-16T12:38:40.502Z,98952.00
2022-11-16T12:42:11.023Z,98880.00
2022-11-16T12:45:29.004Z,98931.00
2022-11-16T12:49:04.947Z,98915.00
2022-11-16T12:52:01.892Z,98916.00
2022-11-16T12:55:25.821Z,98905.00
2022-11-16T12:58:23.496Z,98921.00
2022-11-16T13:01:16.156Z,98894.00
2022-11-16T13:03:57.021Z,98902.00
2022-11-16T13:06:36.518Z,98898.00
2022-11-16T13:09:24.581Z,98899.00
2022-11-16T13:12:03.500Z,98903.00
2022-11-16T13:14:45.366Z,98884.00
2022-11-16T13:17:23.901Z,98871.00
2022-11-16T13:20:32.472Z,98848.00
2022-11-16T13:23:14.776Z,98887.00
2022-11-16T13:26:17.899Z,98856.00
2022-11-16T13:29:04.401Z,98887.00
2022-11-16T13:31:57.490Z,98880.00
2022-11-16T13:34:37.676Z,98885.00
2022-11-16T13:37:48.722Z,98871.00
2022-11-16T13:40:36.923Z,98868.00
2022-11-16T13:43:23.184Z,98881.00
2022-11-16T13:46:01.368Z,98850.00
2022-11-16T13:48:39.578Z,98869.00
2022-11-16T13:51:24.923Z,98862.00
2022-11-16T13:56:53.726Z,98854.00
2022-11-16T13:59:35.997Z,98851.00
2022-11-16T14:02:34.592Z,98857.00
2022-11-16T14:05:18.176Z,98865.00
2022-11-16T14:07:52.240Z,98863.00
2022-11-16T14:11:03.101Z,98841.00
2022-11-16T14:13:46.045Z,98833.00
2022-11-16T14:16:54.588Z,98834.00
2022-11-16T14:19:55.135Z,98829.00
2022-11-16T14:22:59.266Z,98825.00
2022-11-16T14:25:41.903Z,98840.00
2022-11-16T14:28:40.310Z,98854.00
2022-11-16T14:31:25.275Z,98820.00
2022-11-16T14:34:02.719Z,98833.00
2022-11-16T14:36:41.938Z,98851.00
2022-11-16T14:39:34.436Z,98844.00
2022-11-16T14:42:20.293Z,98842.00
2022-11-16T14:45:02.604Z,98843.00
2022-11-16T14:47:38.379Z,98840.00
2022-11-16T14:50:23.080Z,98858.00
2022-11-16T14:53:03.256Z,98827.00
2022-11-16T14:55:45.075Z,98792.00
2022-11-16T14:58:22.091Z,98834.00
2022-11-16T15:01:02.009Z,98845.00
2022-11-16T15:03:47.509Z,98842.00
2022-11-16T15:06:22.587Z,98852.00
2022-11-16T15:09:01.561Z,98838.00
2022-11-16T15:11:59.772Z,98845.00
2022-11-16T15:14:39.900Z,98839.00
2022-11-16T15:17:19.783Z,98796.00
2022-11-16T15:19:59.706Z,98846.00
2022-11-16T15:22:42.528Z,98839.00
2022-11-16T15:25:29.859Z,98824.00
2022-11-16T15:28:07.790Z,98791.00
2022-11-16T15:30:42.282Z,98829.00
2022-11-16T15:33:21.598Z,98817.00
2022-11-16T15:35:56.523Z,98818.00
2022-11-16T15:38:33.843Z,98816.00
2022-11-16T15:41:10.602Z,98797.00
2022-11-16T15:44:14.815Z,98831.00
2022-11-16T15:46:54.392Z,98814.00
2022-11-16T15:49:35.781Z,98806.00
2022-11-16T15:52:10.787Z,98799.00
2022-11-16T15:55:01.646Z,98808.00
2022-11-16T15:57:35.392Z,98814.00
2022-11-16T16:00:31.442Z,98806.00
2022-11-16T16:03:17.455Z,98788.00
2022-11-16T16:05:52.353Z,98799.00
2022-11-16T16:08:33.812Z,98791.00
2022-11-16T16:11:12.588Z,98779.00
2022-11-16T16:13:59.573Z,98761.00
2022-11-16T16:16:36.380Z,98776.00
2022-11-16T16:19:38.213Z,98751.00
2022-11-16T16:22:26.653Z,98771.00
2022-11-16T16:25:01.792Z,98748.00
2022-11-16T16:27:41.844Z,98757.00
2022-11-16T16:30:18.219Z,98766.00
2022-11-16T16:32:53.623Z,98738.00
2022-11-16T16:35:28.630Z,98761.00
2022-11-16T16:38:03.162Z,98752.00
2022-11-16T16:40:36.713Z,98750.00
2022-11-16T16:43:10.219Z,98748.00
2022-11-16T16:45:45.483Z,98737.00
2022-11-16T16:48:23.700Z,98730.00
2022-11-16T16:50:57.196Z,98753.00
2022-11-16T16:53:30.692Z,98762.00
2022-11-16T16:56:04.183Z,98743.00
2022-11-16T16:58:37.572Z,98750.00
2022-11-16T17:01:12.728Z,98747.00
2022-11-16T17:03:47.990Z,98720.00
2022-11-16T17:06:21.466Z,98731.00
2022-11-16T17:08:55.362Z,98719.00
2022-11-16T17:11:29.301Z,98725.00
2022-11-16T17:14:05.622Z,98727.00
2022-11-16T17:16:39.199Z,98728.00
2022-11-16T17:19:13.990Z,98736.00
2022-11-16T17:21:47.962Z,98719.00
2022-11-16T17:24:21.699Z,98732.00
2022-11-16T17:26:55.841Z,98721.00
2022-11-16T17:29:31.256Z,98677.00
2022-11-16T17:32:05.507Z,98722.00
2022-11-16T17:34:41.540Z,98697.00
2022-11-16T17:37:15.243Z,98718.00
2022-11-16T17:39:48.603Z,98729.00
2022-11-16T17:42:22.052Z,98724.00
2022-11-16T17:44:56.826Z,98672.00
2022-11-16T17:47:33.386Z,98713.00
2022-11-16T17:50:09.979Z,98727.00
2022-11-16T17:52:43.391Z,98714.00
2022-11-16T17:55:17.120Z,98712.00
2022-11-16T17:57:51.468Z,98705.00
2022-11-16T18:00:25.287Z,98719.00
2022-11-16T18:02:59.416Z,98722.00
2022-11-16T18:05:34.203Z,98714.00
2022-11-16T18:08:08.102Z,98715.00
2022-11-16T18:10:41.512Z,98700.00
2022-11-16T18:13:15.401Z,98697.00
2022-11-16T18:15:48.754Z,98693.00
2022-11-16T18:18:22.141Z,98690.00
2022-11-16T18:20:59.423Z,98686.00
2022-11-16T18:23:35.403Z,98688.00
2022-11-16T18:26:10.499Z,98677.00
2022-11-16T18:28:46.128Z,98678.00
2022-11-16T18:31:22.937Z,98673.00
2022-11-16T18:33:56.559Z,98664.00
2022-11-16T18:36:31.650Z,98656.00
2022-11-16T18:39:05.547Z,98664.00
2022-11-16T18:41:50.153Z,98670.00
2022-11-16T18:44:26.902Z,98667.00
2022-11-16T18:47:03.161Z,98618.00
2022-11-16T18:49:36.652Z,98664.00
2022-11-16T18:52:11.581Z,98669.00
2022-11-16T18:54:45.290Z,98675.00
2022-11-16T18:57:18.764Z,98668.00
2022-11-16T18:59:52.506Z,98661.00
2022-11-16T19:02:26.088Z,98669.00
2022-11-16T19:05:01.670Z,98662.00
2022-11-16T19:07:37.845Z,98667.00
2022-11-16T19:10:11.869Z,98662.00
2022-11-16T19:12:45.352Z,98671.00
2022-11-16T19:15:19.731Z,98658.00
2022-11-16T19:18:19.861Z,98658.00
2022-11-16T19:20:50.533Z,98650.00
2022-11-16T19:23:25.647Z,98656.00
2022-11-16T19:26:04.891Z,98620.00
2022-11-16T19:28:39.599Z,98647.00
2022-11-16T19:31:16.340Z,98642.00
2022-11-16T19:33:53.900Z,98645.00
2022-11-16T19:36:29.769Z,98638.00
2022-11-16T19:39:06.127Z,98627.00
2022-11-16T19:41:39.643Z,98624.00
2022-11-16T19:44:13.351Z,98618.00
2022-11-16T19:46:47.056Z,98609.00
2022-11-16T19:49:22.014Z,98617.00
2022-11-16T19:51:59.568Z,98623.00
2022-11-16T19:54:36.072Z,98622.00
2022-11-16T19:57:09.729Z,98611.00
2022-11-16T19:59:43.424Z,98616.00
2022-11-16T20:02:16.786Z,98610.00
2022-11-16T20:04:52.260Z,98613.00
2022-11-16T20:07:25.975Z,98600.00
2022-11-16T20:10:01.112Z,98598.00
2022-11-16T20:12:34.475Z,98596.00
2022-11-16T20:15:09.413Z,98567.00
2022-11-16T20:17:42.799Z,98592.00
2022-11-16T20:20:16.673Z,98595.00
2022-11-16T20:22:50.826Z,98581.00
2022-11-16T20:25:26.261Z,98580.00
2022-11-16T20:27:59.788Z,98576.00
2022-11-16T20:30:33.593Z,98568.00
2022-11-16T20:33:07.568Z,98542.00
2022-11-16T20:35:41.051Z,98566.00
2022-11-16T20:38:17.794Z,98567.00
2022-11-16T20:40:58.495Z,98560.00
2022-11-16T20:43:39.587Z,98552.00
2022-11-16T20:46:46.983Z,98518.00
2022-11-16T20:49:37.967Z,98543.00
2022-11-16T20:52:19.121Z,98496.00
2022-11-16T20:55:12.834Z,98540.00
2022-11-16T20:57:59.123Z,98520.00
2022-11-16T21:00:34.405Z,98551.00
2022-11-16T21:03:14.132Z,98503.00
2022-11-16T21:05:57.474Z,98519.00
2022-11-16T21:08:45.771Z,98524.00
2022-11-16T21:11:56.977Z,98463.00
2022-11-16T21:14:46.716Z,98465.00
2022-11-16T21:17:23.398Z,98506.00
2022-11-16T21:20:29.955Z,98455.00
2022-11-16T21:23:10.270Z,98489.00
2022-11-16T21:25:57.541Z,98513.00
2022-11-16T21:28:53.783Z,98460.00
2022-11-16T21:31:38.233Z,98491.00
2022-11-16T21:34:14.334Z,98487.00
2022-11-16T21:36:49.292Z,98483.00
2022-11-16T21:39:27.021Z,98468.00
2022-11-16T21:42:22.375Z,98464.00
2022-11-16T21:45:30.787Z,98471.00
2022-11-16T21:48:24.255Z,98408.00
2022-11-16T21:51:07.194Z,98419.00
2022-11-16T21:54:12.694Z,98460.00
2022-11-16T21:57:07.676Z,98450.00
2022-11-16T21:59:56.947Z,98447.00
2022-11-16T22:02:36.888Z,98418.00
2022-11-16T22:05:33.843Z,98451.00
2022-11-16T22:08:12.900Z,98391.00
2022-11-16T22:10:56.651Z,98389.00
2022-11-16T22:13:40.535Z,98415.00
2022-11-16T22:16:16.948Z,98422.00
2022-11-16T22:18:58.190Z,98393.00
2022-11-16T22:21:49.282Z,98379.00
2022-11-16T22:24:24.073Z,98350.00
2022-11-16T22:26:58.734Z,98352.00
2022-11-16T22:29:34.574Z,98340.00
2022-11-16T22:32:09.507Z,98316.00
2022-11-16T22:34:43.704Z,98335.00
2022-11-16T22:37:26.235Z,98356.00
2022-11-16T22:40:00.204Z,98315.00
2022-11-16T22:42:34.174Z,98340.00
2022-11-16T22:45:18.202Z,98290.00
2022-11-16T22:47:54.866Z,98335.00
2022-11-16T22:50:29.202Z,98324.00
2022-11-16T22:53:04.639Z,98327.00
2022-11-16T22:55:39.905Z,98325.00
2022-11-16T22:58:13.818Z,98337.00
2022-11-16T23:00:51.626Z,98318.00
2022-11-16T23:03:25.723Z,98270.00
2022-11-16T23:06:01.762Z,98272.00
2022-11-16T23:08:40.423Z,98268.00
2022-11-16T23:11:34.618Z,98287.00
2022-11-16T23:14:30.364Z,98281.00
2022-11-16T23:17:05.654Z,98270.00
2022-11-16T23:20:00.108Z,98275.00
2022-11-16T23:22:51.288Z,98245.00
2022-11-16T23:25:43.857Z,98263.00
2022-11-16T23:28:21.488Z,98232.00
2022-11-16T23:30:55.142Z,98245.00
2022-11-16T23:33:42.990Z,98240.00
2022-11-16T23:36:17.083Z,98223.00
2022-11-16T23:38:50.496Z,98229.00
2022-11-16T23:41:42.909Z,98194.00
2022-11-16T23:44:19.134Z,98212.00
2022-11-16T23:46:54.284Z,98213.00
2022-11-16T23:49:28.061Z,98206.00
2022-11-16T23:52:02.248Z,98201.00
2022-11-16T23:54:36.549Z,98192.00
2022-11-16T23:57:12.040Z,98186.00
2022-11-16T23:59:46.166Z,98203.00
